AAL3063 KDAL-KTUL
Flight info
| Callsign | AAL3063 |
|---|---|
| Flight time | 0h 41m |
| Altitude | 27000 |
| Route | SWTSR7 EAKER TUL |
| Aircraft | A321/M-SDE3FGHIRWY/LB1 |
Departure
| Time | 2026-05-05 11:46 |
|---|---|
| Airport | Dallas Love Field (KDAL) |
Arrival
| Time | 2026-05-05 12:27 |
|---|---|
| Airport | Tulsa International Airport (KTUL) |
| Time | Latitude | Longitude | Altitude | Speed | Heading |
|---|---|---|---|---|---|
| 2026-05-05 11:08 | 32.84647 | -96.85042 | 484 ft | 0 kts | 180° |
| 2026-05-05 11:29 | 32.84648 | -96.85042 | 484 ft | 0 kts | 180° |
| 2026-05-05 11:29 | 32.84647 | -96.85042 | 484 ft | 0 kts | 180° |
| 2026-05-05 11:29 | 32.84648 | -96.85042 | 484 ft | 0 kts | 180° |
| 2026-05-05 11:32 | 32.84649 | -96.85042 | 475 ft | 2 kts | 180° |
| 2026-05-05 11:32 | 32.84674 | -96.85042 | 479 ft | 4 kts | 180° |
| 2026-05-05 11:32 | 32.84701 | -96.85041 | 479 ft | 4 kts | 180° |
| 2026-05-05 11:33 | 32.84725 | -96.85041 | 474 ft | 4 kts | 199° |
| 2026-05-05 11:33 | 32.84742 | -96.85025 | 479 ft | 4 kts | 255° |
| 2026-05-05 11:33 | 32.84745 | -96.85000 | 478 ft | 1 kts | 271° |
| 2026-05-05 11:33 | 32.84744 | -96.84996 | 478 ft | 0 kts | 271° |
| 2026-05-05 11:35 | 32.84745 | -96.85014 | 477 ft | 4 kts | 271° |
| 2026-05-05 11:35 | 32.84745 | -96.85060 | 478 ft | 7 kts | 271° |
| 2026-05-05 11:36 | 32.84746 | -96.85131 | 484 ft | 9 kts | 271° |
| 2026-05-05 11:36 | 32.84747 | -96.85213 | 483 ft | 10 kts | 270° |
| 2026-05-05 11:36 | 32.84754 | -96.85296 | 478 ft | 10 kts | 295° |
| 2026-05-05 11:36 | 32.84789 | -96.85370 | 484 ft | 11 kts | 279° |
| 2026-05-05 11:37 | 32.84791 | -96.85462 | 484 ft | 12 kts | 270° |
| 2026-05-05 11:37 | 32.84779 | -96.85559 | 484 ft | 12 kts | 258° |
| 2026-05-05 11:37 | 32.84760 | -96.85662 | 478 ft | 13 kts | 258° |
| 2026-05-05 11:37 | 32.84771 | -96.85743 | 479 ft | 11 kts | 315° |
| 2026-05-05 11:38 | 32.84827 | -96.85808 | 479 ft | 12 kts | 316° |
| 2026-05-05 11:38 | 32.84876 | -96.85865 | 482 ft | 8 kts | 315° |
| 2026-05-05 11:38 | 32.84920 | -96.85915 | 483 ft | 9 kts | 316° |
| 2026-05-05 11:38 | 32.84966 | -96.85969 | 477 ft | 9 kts | 316° |
| 2026-05-05 11:39 | 32.85014 | -96.86023 | 477 ft | 10 kts | 316° |
| 2026-05-05 11:39 | 32.85067 | -96.86085 | 479 ft | 11 kts | 316° |
| 2026-05-05 11:39 | 32.85125 | -96.86151 | 482 ft | 10 kts | 315° |
| 2026-05-05 11:39 | 32.85171 | -96.86205 | 483 ft | 7 kts | 315° |
| 2026-05-05 11:40 | 32.85195 | -96.86235 | 481 ft | 3 kts | 308° |
| 2026-05-05 11:40 | 32.85191 | -96.86251 | 483 ft | 2 kts | 233° |
| 2026-05-05 11:40 | 32.85189 | -96.86253 | 483 ft | 0 kts | 230° |
| 2026-05-05 11:44 | 32.85182 | -96.86263 | 474 ft | 3 kts | 230° |
| 2026-05-05 11:44 | 32.85165 | -96.86286 | 476 ft | 5 kts | 227° |
| 2026-05-05 11:44 | 32.85137 | -96.86319 | 478 ft | 6 kts | 224° |
| 2026-05-05 11:45 | 32.85114 | -96.86320 | 476 ft | 3 kts | 149° |
| 2026-05-05 11:45 | 32.85070 | -96.86272 | 479 ft | 22 kts | 136° |
| 2026-05-05 11:45 | 32.84790 | -96.85947 | 478 ft | 90 kts | 136° |
| 2026-05-05 11:45 | 32.84190 | -96.85256 | 480 ft | 148 kts | 135° |
| 2026-05-05 11:46 | 32.83390 | -96.84364 | 988 ft | 154 kts | 140° |
| 2026-05-05 11:46 | 32.82637 | -96.83458 | 1697 ft | 154 kts | 144° |
| 2026-05-05 11:46 | 32.81904 | -96.82534 | 2240 ft | 154 kts | 146° |
| 2026-05-05 11:46 | 32.81161 | -96.81598 | 2746 ft | 156 kts | 148° |
| 2026-05-05 11:47 | 32.80406 | -96.80653 | 3167 ft | 159 kts | 148° |
| 2026-05-05 11:47 | 32.79886 | -96.80005 | 3431 ft | 161 kts | 148° |
| 2026-05-05 11:47 | 32.79090 | -96.79017 | 3719 ft | 174 kts | 145° |
| 2026-05-05 11:47 | 32.78193 | -96.77920 | 3861 ft | 196 kts | 144° |
| 2026-05-05 11:48 | 32.76083 | -96.75324 | 4149 ft | 238 kts | 141° |
| 2026-05-05 11:48 | 32.74876 | -96.73867 | 4278 ft | 257 kts | 142° |
| 2026-05-05 11:48 | 32.73542 | -96.72316 | 4377 ft | 280 kts | 142° |
| 2026-05-05 11:49 | 32.72137 | -96.70618 | 4721 ft | 296 kts | 132° |
| 2026-05-05 11:49 | 32.71203 | -96.68402 | 5217 ft | 309 kts | 105° |
| 2026-05-05 11:49 | 32.71140 | -96.65848 | 5785 ft | 313 kts | 76° |
| 2026-05-05 11:49 | 32.72008 | -96.63520 | 6368 ft | 309 kts | 48° |
| 2026-05-05 11:50 | 32.73598 | -96.61892 | 6955 ft | 300 kts | 22° |
| 2026-05-05 11:50 | 32.75553 | -96.61199 | 7533 ft | 291 kts | 357° |
| 2026-05-05 11:50 | 32.77513 | -96.61486 | 8125 ft | 281 kts | 335° |
| 2026-05-05 11:50 | 32.79312 | -96.62376 | 8746 ft | 281 kts | 331° |
| 2026-05-05 11:51 | 32.81112 | -96.63300 | 9350 ft | 283 kts | 332° |
| 2026-05-05 11:51 | 32.82935 | -96.64234 | 9915 ft | 287 kts | 332° |
| 2026-05-05 11:51 | 32.84825 | -96.65208 | 10082 ft | 306 kts | 332° |
| 2026-05-05 11:51 | 32.86835 | -96.66243 | 10197 ft | 324 kts | 332° |
| 2026-05-05 11:52 | 32.88953 | -96.67327 | 10456 ft | 334 kts | 332° |
| 2026-05-05 11:52 | 32.91064 | -96.68396 | 11202 ft | 329 kts | 332° |
| 2026-05-05 11:52 | 32.93173 | -96.69461 | 11807 ft | 329 kts | 332° |
| 2026-05-05 11:52 | 32.95315 | -96.70548 | 12365 ft | 331 kts | 332° |
| 2026-05-05 11:53 | 32.97436 | -96.71627 | 12932 ft | 333 kts | 331° |
| 2026-05-05 11:53 | 32.99576 | -96.72718 | 13491 ft | 335 kts | 331° |
| 2026-05-05 11:53 | 33.01719 | -96.73814 | 14001 ft | 337 kts | 331° |
| 2026-05-05 11:53 | 33.03880 | -96.74922 | 14507 ft | 338 kts | 330° |
| 2026-05-05 11:54 | 33.06048 | -96.76033 | 15018 ft | 340 kts | 330° |
| 2026-05-05 11:54 | 33.08226 | -96.77147 | 15534 ft | 341 kts | 330° |
| 2026-05-05 11:54 | 33.10414 | -96.78267 | 16058 ft | 343 kts | 330° |
| 2026-05-05 11:54 | 33.12605 | -96.79389 | 16581 ft | 344 kts | 330° |
| 2026-05-05 11:55 | 33.14810 | -96.80522 | 17104 ft | 345 kts | 330° |
| 2026-05-05 11:55 | 33.17019 | -96.81660 | 17618 ft | 347 kts | 329° |
| 2026-05-05 11:55 | 33.19241 | -96.82805 | 18119 ft | 348 kts | 329° |
| 2026-05-05 11:55 | 33.21466 | -96.83948 | 18532 ft | 350 kts | 329° |
| 2026-05-05 11:56 | 33.23714 | -96.85100 | 18937 ft | 352 kts | 329° |
| 2026-05-05 11:56 | 33.25971 | -96.86258 | 19327 ft | 354 kts | 329° |
| 2026-05-05 11:56 | 33.28245 | -96.87430 | 19717 ft | 357 kts | 329° |
| 2026-05-05 11:56 | 33.30531 | -96.88611 | 20136 ft | 359 kts | 329° |
| 2026-05-05 11:57 | 33.32830 | -96.89799 | 20537 ft | 361 kts | 329° |
| 2026-05-05 11:57 | 33.35146 | -96.90994 | 20929 ft | 364 kts | 329° |
| 2026-05-05 11:57 | 33.37478 | -96.92196 | 21319 ft | 366 kts | 329° |
| 2026-05-05 11:57 | 33.39826 | -96.93407 | 21699 ft | 368 kts | 329° |
| 2026-05-05 11:58 | 33.42291 | -96.94470 | 22066 ft | 377 kts | 339° |
| 2026-05-05 11:58 | 33.44920 | -96.94977 | 22427 ft | 389 kts | 349° |
| 2026-05-05 11:58 | 33.47661 | -96.94872 | 22787 ft | 401 kts | 0° |
| 2026-05-05 11:58 | 33.50410 | -96.94111 | 23243 ft | 410 kts | 11° |
| 2026-05-05 11:59 | 33.53121 | -96.93040 | 23635 ft | 409 kts | 11° |
| 2026-05-05 11:59 | 33.55822 | -96.91975 | 24030 ft | 409 kts | 10° |
| 2026-05-05 11:59 | 33.58521 | -96.90914 | 24423 ft | 408 kts | 9° |
| 2026-05-05 11:59 | 33.61214 | -96.89859 | 24813 ft | 407 kts | 9° |
| 2026-05-05 12:00 | 33.63902 | -96.88809 | 25196 ft | 406 kts | 8° |
| 2026-05-05 12:00 | 33.66584 | -96.87761 | 25591 ft | 405 kts | 8° |
| 2026-05-05 12:00 | 33.69259 | -96.86713 | 25980 ft | 404 kts | 8° |
| 2026-05-05 12:00 | 33.71928 | -96.85663 | 26355 ft | 403 kts | 7° |
| 2026-05-05 12:01 | 33.74607 | -96.84611 | 26557 ft | 408 kts | 7° |
| 2026-05-05 12:01 | 33.77325 | -96.83550 | 26692 ft | 414 kts | 7° |
| 2026-05-05 12:01 | 33.80092 | -96.82473 | 26723 ft | 423 kts | 7° |
| 2026-05-05 12:01 | 33.82927 | -96.81369 | 26722 ft | 433 kts | 8° |
| 2026-05-05 12:02 | 33.85817 | -96.80240 | 26717 ft | 442 kts | 8° |
| 2026-05-05 12:02 | 33.88757 | -96.79080 | 26712 ft | 446 kts | 8° |
| 2026-05-05 12:02 | 33.91703 | -96.77906 | 26709 ft | 447 kts | 8° |
| 2026-05-05 12:02 | 33.94660 | -96.76725 | 26702 ft | 447 kts | 8° |
| 2026-05-05 12:03 | 33.97617 | -96.75546 | 26695 ft | 447 kts | 8° |
| 2026-05-05 12:03 | 34.00567 | -96.74373 | 26693 ft | 447 kts | 8° |
| 2026-05-05 12:03 | 34.03527 | -96.73200 | 26697 ft | 447 kts | 8° |
| 2026-05-05 12:03 | 34.06522 | -96.72015 | 26691 ft | 447 kts | 8° |
| 2026-05-05 12:04 | 34.09476 | -96.70843 | 26691 ft | 447 kts | 8° |
| 2026-05-05 12:04 | 34.12428 | -96.69671 | 26688 ft | 447 kts | 8° |
| 2026-05-05 12:04 | 34.15382 | -96.68499 | 26677 ft | 447 kts | 8° |
| 2026-05-05 12:04 | 34.18340 | -96.67326 | 26678 ft | 447 kts | 8° |
| 2026-05-05 12:05 | 34.21288 | -96.66156 | 26681 ft | 447 kts | 8° |
| 2026-05-05 12:05 | 34.24247 | -96.64983 | 26683 ft | 447 kts | 8° |
| 2026-05-05 12:05 | 34.27201 | -96.63805 | 26681 ft | 447 kts | 8° |
| 2026-05-05 12:05 | 34.30154 | -96.62624 | 26676 ft | 447 kts | 8° |
| 2026-05-05 12:06 | 34.33110 | -96.61438 | 26678 ft | 448 kts | 9° |
| 2026-05-05 12:06 | 34.36061 | -96.60216 | 26671 ft | 449 kts | 9° |
| 2026-05-05 12:06 | 34.39010 | -96.58961 | 26671 ft | 450 kts | 10° |
| 2026-05-05 12:06 | 34.41960 | -96.57687 | 26669 ft | 450 kts | 10° |
| 2026-05-05 12:07 | 34.44908 | -96.56412 | 26669 ft | 450 kts | 10° |
| 2026-05-05 12:07 | 34.47852 | -96.55145 | 26668 ft | 450 kts | 10° |
| 2026-05-05 12:07 | 34.50807 | -96.53883 | 26667 ft | 450 kts | 10° |
| 2026-05-05 12:07 | 34.53759 | -96.52625 | 26667 ft | 450 kts | 10° |
| 2026-05-05 12:08 | 34.56713 | -96.51367 | 26668 ft | 450 kts | 10° |
| 2026-05-05 12:08 | 34.59667 | -96.50112 | 26669 ft | 450 kts | 10° |
| 2026-05-05 12:08 | 34.62609 | -96.48861 | 26533 ft | 444 kts | 10° |
| 2026-05-05 12:08 | 34.65498 | -96.47621 | 26289 ft | 437 kts | 10° |
| 2026-05-05 12:09 | 34.68356 | -96.46396 | 26049 ft | 434 kts | 10° |
| 2026-05-05 12:09 | 34.71199 | -96.45179 | 25812 ft | 432 kts | 10° |
| 2026-05-05 12:09 | 34.74030 | -96.43968 | 25572 ft | 431 kts | 10° |
| 2026-05-05 12:09 | 34.76849 | -96.42763 | 25338 ft | 429 kts | 10° |
| 2026-05-05 12:10 | 34.79658 | -96.41562 | 25106 ft | 427 kts | 10° |
| 2026-05-05 12:10 | 34.82457 | -96.40366 | 24876 ft | 425 kts | 11° |
| 2026-05-05 12:10 | 34.85241 | -96.39172 | 24642 ft | 424 kts | 11° |
| 2026-05-05 12:10 | 34.88040 | -96.37968 | 24308 ft | 417 kts | 11° |
| 2026-05-05 12:11 | 34.90766 | -96.36795 | 23852 ft | 414 kts | 11° |
| 2026-05-05 12:11 | 34.93468 | -96.35631 | 23401 ft | 411 kts | 11° |
| 2026-05-05 12:11 | 34.96153 | -96.34475 | 22905 ft | 407 kts | 11° |
| 2026-05-05 12:11 | 34.98808 | -96.33330 | 22461 ft | 402 kts | 11° |
| 2026-05-05 12:12 | 35.01428 | -96.32198 | 22023 ft | 397 kts | 12° |
| 2026-05-05 12:12 | 35.04011 | -96.31085 | 21586 ft | 392 kts | 12° |
| 2026-05-05 12:12 | 35.06570 | -96.29983 | 21153 ft | 387 kts | 12° |
| 2026-05-05 12:12 | 35.09096 | -96.28894 | 20711 ft | 383 kts | 12° |
| 2026-05-05 12:13 | 35.11597 | -96.27812 | 20267 ft | 379 kts | 12° |
| 2026-05-05 12:13 | 35.14073 | -96.26743 | 19813 ft | 376 kts | 12° |
| 2026-05-05 12:13 | 35.16526 | -96.25681 | 19379 ft | 373 kts | 12° |
| 2026-05-05 12:13 | 35.18972 | -96.24622 | 18919 ft | 371 kts | 13° |
| 2026-05-05 12:14 | 35.21401 | -96.23570 | 18469 ft | 370 kts | 13° |
| 2026-05-05 12:14 | 35.23821 | -96.22522 | 18009 ft | 368 kts | 13° |
| 2026-05-05 12:14 | 35.26233 | -96.21479 | 17504 ft | 367 kts | 13° |
| 2026-05-05 12:14 | 35.28624 | -96.20440 | 17049 ft | 363 kts | 13° |
| 2026-05-05 12:15 | 35.30995 | -96.19407 | 16600 ft | 360 kts | 13° |
| 2026-05-05 12:15 | 35.33342 | -96.18384 | 16147 ft | 357 kts | 13° |
| 2026-05-05 12:15 | 35.35676 | -96.17367 | 15692 ft | 354 kts | 13° |
| 2026-05-05 12:15 | 35.37990 | -96.16361 | 15261 ft | 352 kts | 14° |
| 2026-05-05 12:16 | 35.40295 | -96.15360 | 14820 ft | 350 kts | 14° |
| 2026-05-05 12:16 | 35.42585 | -96.14362 | 14383 ft | 348 kts | 14° |
| 2026-05-05 12:16 | 35.44861 | -96.13369 | 13948 ft | 347 kts | 14° |
| 2026-05-05 12:16 | 35.47164 | -96.12365 | 13496 ft | 346 kts | 15° |
| 2026-05-05 12:17 | 35.49425 | -96.11379 | 13033 ft | 344 kts | 15° |
| 2026-05-05 12:17 | 35.50914 | -96.10730 | 12740 ft | 342 kts | 15° |
| 2026-05-05 12:17 | 35.53149 | -96.09754 | 12313 ft | 340 kts | 15° |
| 2026-05-05 12:17 | 35.55367 | -96.08786 | 11883 ft | 337 kts | 15° |
| 2026-05-05 12:18 | 35.57572 | -96.07823 | 11452 ft | 335 kts | 15° |
| 2026-05-05 12:18 | 35.59763 | -96.06865 | 11030 ft | 333 kts | 15° |
| 2026-05-05 12:18 | 35.61939 | -96.05912 | 10612 ft | 331 kts | 15° |
| 2026-05-05 12:18 | 35.64121 | -96.04957 | 10056 ft | 335 kts | 15° |
| 2026-05-05 12:19 | 35.66314 | -96.03996 | 9592 ft | 334 kts | 16° |
| 2026-05-05 12:19 | 35.68510 | -96.03031 | 8939 ft | 338 kts | 16° |
| 2026-05-05 12:19 | 35.70731 | -96.02057 | 8364 ft | 339 kts | 16° |
| 2026-05-05 12:19 | 35.72995 | -96.01064 | 7475 ft | 350 kts | 15° |
| 2026-05-05 12:20 | 35.75290 | -96.00054 | 6876 ft | 350 kts | 16° |
| 2026-05-05 12:20 | 35.77539 | -95.99059 | 6732 ft | 335 kts | 15° |
| 2026-05-05 12:20 | 35.79458 | -95.98206 | 6638 ft | 321 kts | 15° |
| 2026-05-05 12:20 | 35.81501 | -95.97297 | 6515 ft | 308 kts | 15° |
| 2026-05-05 12:21 | 35.83503 | -95.96409 | 6377 ft | 296 kts | 15° |
| 2026-05-05 12:21 | 35.85422 | -95.95562 | 6130 ft | 291 kts | 15° |
| 2026-05-05 12:21 | 35.87318 | -95.94730 | 5794 ft | 288 kts | 15° |
| 2026-05-05 12:21 | 35.89196 | -95.93906 | 5442 ft | 286 kts | 15° |
| 2026-05-05 12:22 | 35.91066 | -95.93089 | 5103 ft | 284 kts | 16° |
| 2026-05-05 12:22 | 35.92920 | -95.92276 | 4765 ft | 282 kts | 16° |
| 2026-05-05 12:22 | 35.94761 | -95.91468 | 4455 ft | 279 kts | 17° |
| 2026-05-05 12:22 | 35.96457 | -95.90718 | 4332 ft | 268 kts | 17° |
| 2026-05-05 12:23 | 35.98181 | -95.89959 | 4208 ft | 257 kts | 14° |
| 2026-05-05 12:23 | 35.99873 | -95.89551 | 4111 ft | 239 kts | 1° |
| 2026-05-05 12:23 | 36.01490 | -95.89448 | 3940 ft | 227 kts | 360° |
| 2026-05-05 12:23 | 36.03020 | -95.89347 | 3675 ft | 216 kts | 0° |
| 2026-05-05 12:24 | 36.04514 | -95.89249 | 3235 ft | 215 kts | 1° |
| 2026-05-05 12:24 | 36.05990 | -95.89152 | 2912 ft | 207 kts | 1° |
| 2026-05-05 12:24 | 36.07378 | -95.89059 | 2674 ft | 193 kts | 1° |
| 2026-05-05 12:24 | 36.08664 | -95.88972 | 2542 ft | 176 kts | 2° |
| 2026-05-05 12:25 | 36.09862 | -95.88891 | 2489 ft | 170 kts | 1° |
| 2026-05-05 12:25 | 36.11018 | -95.88812 | 2208 ft | 162 kts | 2° |
| 2026-05-05 12:25 | 36.12135 | -95.88736 | 1975 ft | 159 kts | 4° |
| 2026-05-05 12:25 | 36.13231 | -95.88663 | 1754 ft | 157 kts | 4° |
| 2026-05-05 12:26 | 36.14320 | -95.88593 | 1524 ft | 156 kts | 5° |
| 2026-05-05 12:26 | 36.15393 | -95.88524 | 1314 ft | 154 kts | 6° |
| 2026-05-05 12:26 | 36.16467 | -95.88459 | 1103 ft | 155 kts | 6° |
| 2026-05-05 12:26 | 36.17539 | -95.88393 | 911 ft | 154 kts | 6° |
| 2026-05-05 12:27 | 36.18612 | -95.88320 | 720 ft | 154 kts | 7° |
| 2026-05-05 12:27 | 36.19627 | -95.88245 | 670 ft | 129 kts | 3° |
| 2026-05-05 12:27 | 36.20360 | -95.88202 | 667 ft | 79 kts | 2° |
| 2026-05-05 12:27 | 36.20757 | -95.88177 | 668 ft | 46 kts | 2° |
| 2026-05-05 12:28 | 36.21050 | -95.88157 | 668 ft | 39 kts | 3° |
| 2026-05-05 12:28 | 36.21301 | -95.88140 | 669 ft | 18 kts | 3° |
| 2026-05-05 12:28 | 36.21383 | -95.88171 | 668 ft | 13 kts | 300° |
| 2026-05-05 12:28 | 36.21384 | -95.88283 | 667 ft | 13 kts | 249° |
| 2026-05-05 12:29 | 36.21303 | -95.88311 | 667 ft | 13 kts | 182° |
| 2026-05-05 12:29 | 36.21208 | -95.88316 | 667 ft | 14 kts | 182° |
| 2026-05-05 12:29 | 36.21105 | -95.88323 | 667 ft | 15 kts | 183° |
| 2026-05-05 12:29 | 36.20995 | -95.88330 | 668 ft | 16 kts | 183° |
| 2026-05-05 12:30 | 36.20878 | -95.88338 | 668 ft | 17 kts | 183° |
| 2026-05-05 12:30 | 36.20754 | -95.88346 | 668 ft | 18 kts | 182° |
| 2026-05-05 12:30 | 36.20624 | -95.88354 | 668 ft | 19 kts | 184° |
| 2026-05-05 12:30 | 36.20487 | -95.88362 | 668 ft | 20 kts | 182° |
| 2026-05-05 12:31 | 36.20352 | -95.88370 | 668 ft | 18 kts | 183° |
| 2026-05-05 12:31 | 36.20235 | -95.88385 | 668 ft | 16 kts | 193° |
| 2026-05-05 12:31 | 36.20138 | -95.88424 | 668 ft | 14 kts | 199° |
| 2026-05-05 12:31 | 36.20055 | -95.88459 | 668 ft | 12 kts | 198° |
| 2026-05-05 12:32 | 36.19974 | -95.88492 | 668 ft | 13 kts | 198° |
| 2026-05-05 12:32 | 36.19889 | -95.88527 | 668 ft | 13 kts | 198° |
| 2026-05-05 12:32 | 36.19801 | -95.88564 | 668 ft | 13 kts | 198° |
| 2026-05-05 12:32 | 36.19709 | -95.88589 | 668 ft | 14 kts | 185° |
| 2026-05-05 12:33 | 36.19616 | -95.88591 | 669 ft | 13 kts | 180° |
| 2026-05-05 12:33 | 36.19531 | -95.88589 | 670 ft | 13 kts | 179° |
| 2026-05-05 12:33 | 36.19437 | -95.88588 | 668 ft | 13 kts | 179° |
| 2026-05-05 12:33 | 36.19360 | -95.88623 | 668 ft | 11 kts | 216° |
| 2026-05-05 12:34 | 36.19300 | -95.88679 | 668 ft | 10 kts | 217° |
| 2026-05-05 12:34 | 36.19248 | -95.88729 | 667 ft | 10 kts | 218° |
| 2026-05-05 12:34 | 36.19193 | -95.88782 | 666 ft | 9 kts | 212° |
| 2026-05-05 12:34 | 36.19148 | -95.88777 | 668 ft | 6 kts | 155° |
| 2026-05-05 12:35 | 36.19123 | -95.88761 | 668 ft | 2 kts | 153° |
| 2026-05-05 12:35 | 36.19122 | -95.88761 | 668 ft | 0 kts | 153° |